sensor_id;sensor_type;location;lat;lon;timestamp;temperature;humidity
10980;DHT22;5543;51.734;8.744;2023-03-01T00:01:14;-2.80;99.90
10980;DHT22;5543;51.734;8.744;2023-03-01T00:03:42;-2.70;99.90
10980;DHT22;5543;51.734;8.744;2023-03-01T00:06:11;-2.70;99.90
10980;DHT22;5543;51.734;8.744;2023-03-01T00:08:39;-2.70;99.90
10980;DHT22;5543;51.734;8.744;2023-03-01T00:11:10;-2.80;99.90
10980;DHT22;5543;51.734;8.744;2023-03-01T00:13:41;-2.80;99.90
10980;DHT22;5543;51.734;8.744;2023-03-01T00:16:11;-2.80;99.90
10980;DHT22;5543;51.734;8.744;2023-03-01T00:18:40;-2.80;99.90
10980;DHT22;5543;51.734;8.744;2023-03-01T00:21:08;-2.80;99.90
10980;DHT22;5543;51.734;8.744;2023-03-01T00:23:37;-2.90;99.90
10980;DHT22;5543;51.734;8.744;2023-03-01T00:26:07;-2.90;99.90
10980;DHT22;5543;51.734;8.744;2023-03-01T00:28:35;-3.00;99.90
10980;DHT22;5543;51.734;8.744;2023-03-01T00:31:06;-3.10;99.90
10980;DHT22;5543;51.734;8.744;2023-03-01T00:33:34;-3.10;99.90
10980;DHT22;5543;51.734;8.744;2023-03-01T00:36:03;-3.10;99.90
10980;DHT22;5543;51.734;8.744;2023-03-01T00:38:34;-3.10;99.90
10980;DHT22;5543;51.734;8.744;2023-03-01T00:41:03;-3.10;99.90
10980;DHT22;5543;51.734;8.744;2023-03-01T00:43:32;-3.20;99.90
10980;DHT22;5543;51.734;8.744;2023-03-01T00:46:05;-3.20;99.90
10980;DHT22;5543;51.734;8.744;2023-03-01T00:48:34;-3.20;99.90
10980;DHT22;5543;51.734;8.744;2023-03-01T00:51:07;-3.20;99.90
10980;DHT22;5543;51.734;8.744;2023-03-01T00:53:36;-3.30;99.90
10980;DHT22;5543;51.734;8.744;2023-03-01T00:56:05;-3.10;99.90
10980;DHT22;5543;51.734;8.744;2023-03-01T00:58:34;-3.30;99.90
10980;DHT22;5543;51.734;8.744;2023-03-01T01:01:09;-3.30;99.90
10980;DHT22;5543;51.734;8.744;2023-03-01T01:03:46;-3.30;99.90
10980;DHT22;5543;51.734;8.744;2023-03-01T01:06:18;-3.30;99.90
10980;DHT22;5543;51.734;8.744;2023-03-01T01:08:48;-3.30;99.90
10980;DHT22;5543;51.734;8.744;2023-03-01T01:11:17;-3.40;99.90
10980;DHT22;5543;51.734;8.744;2023-03-01T01:13:46;-3.40;99.90
10980;DHT22;5543;51.734;8.744;2023-03-01T01:16:17;-3.40;99.90
10980;DHT22;5543;51.734;8.744;2023-03-01T01:18:47;-3.50;99.90
10980;DHT22;5543;51.734;8.744;2023-03-01T01:21:16;-3.50;99.90
10980;DHT22;5543;51.734;8.744;2023-03-01T01:23:45;-3.50;99.90
10980;DHT22;5543;51.734;8.744;2023-03-01T01:26:16;-3.50;99.90
10980;DHT22;5543;51.734;8.744;2023-03-01T01:28:44;-3.40;99.90
10980;DHT22;5543;51.734;8.744;2023-03-01T01:31:13;-3.50;99.90
10980;DHT22;5543;51.734;8.744;2023-03-01T01:33:42;-3.50;99.90
10980;DHT22;5543;51.734;8.744;2023-03-01T01:36:10;-3.50;99.90
10980;DHT22;5543;51.734;8.744;2023-03-01T01:38:39;-3.60;99.90
10980;DHT22;5543;51.734;8.744;2023-03-01T01:41:10;-3.60;99.90
10980;DHT22;5543;51.734;8.744;2023-03-01T01:43:40;-3.50;99.90
10980;DHT22;5543;51.734;8.744;2023-03-01T01:46:20;-3.60;99.90
10980;DHT22;5543;51.734;8.744;2023-03-01T01:48:54;-3.50;99.90
10980;DHT22;5543;51.734;8.744;2023-03-01T01:51:25;-3.60;99.90
10980;DHT22;5543;51.734;8.744;2023-03-01T01:53:58;-3.70;99.90
10980;DHT22;5543;51.734;8.744;2023-03-01T01:56:27;-3.70;99.90
10980;DHT22;5543;51.734;8.744;2023-03-01T01:58:57;-3.70;99.90
10980;DHT22;5543;51.734;8.744;2023-03-01T02:01:25;-3.70;99.90
10980;DHT22;5543;51.734;8.744;2023-03-01T02:03:55;-3.70;99.90
10980;DHT22;5543;51.734;8.744;2023-03-01T02:06:28;-3.80;99.90
10980;DHT22;5543;51.734;8.744;2023-03-01T02:09:02;-3.80;99.90
10980;DHT22;5543;51.734;8.744;2023-03-01T02:11:33;-3.90;99.90
10980;DHT22;5543;51.734;8.744;2023-03-01T02:14:01;-3.90;99.90
10980;DHT22;5543;51.734;8.744;2023-03-01T02:16:29;-3.90;99.90
10980;DHT22;5543;51.734;8.744;2023-03-01T02:19:00;-4.00;99.90
10980;DHT22;5543;51.734;8.744;2023-03-01T02:21:38;-4.00;99.90
10980;DHT22;5543;51.734;8.744;2023-03-01T02:24:20;-4.00;99.90
10980;DHT22;5543;51.734;8.744;2023-03-01T02:26:53;-4.10;99.90
10980;DHT22;5543;51.734;8.744;2023-03-01T02:29:24;-4.00;99.90
10980;DHT22;5543;51.734;8.744;2023-03-01T02:31:54;-4.00;99.90
10980;DHT22;5543;51.734;8.744;2023-03-01T02:34:25;-4.00;99.90
10980;DHT22;5543;51.734;8.744;2023-03-01T02:36:56;-4.00;99.90
10980;DHT22;5543;51.734;8.744;2023-03-01T02:39:26;-4.10;99.90
10980;DHT22;5543;51.734;8.744;2023-03-01T02:41:56;-4.00;99.90
10980;DHT22;5543;51.734;8.744;2023-03-01T02:44:27;-4.00;99.90
10980;DHT22;5543;51.734;8.744;2023-03-01T02:46:56;-4.10;99.90
10980;DHT22;5543;51.734;8.744;2023-03-01T02:49:26;-4.10;99.90
10980;DHT22;5543;51.734;8.744;2023-03-01T02:52:20;-4.10;99.90
10980;DHT22;5543;51.734;8.744;2023-03-01T02:54:56;-4.20;99.90
10980;DHT22;5543;51.734;8.744;2023-03-01T02:57:27;-4.20;99.90
10980;DHT22;5543;51.734;8.744;2023-03-01T03:00:02;-4.20;99.90
10980;DHT22;5543;51.734;8.744;2023-03-01T03:02:35;-4.20;99.90
10980;DHT22;5543;51.734;8.744;2023-03-01T03:05:10;-4.20;99.90
10980;DHT22;5543;51.734;8.744;2023-03-01T03:07:41;-4.30;99.90
10980;DHT22;5543;51.734;8.744;2023-03-01T03:10:15;-4.30;99.90
10980;DHT22;5543;51.734;8.744;2023-03-01T03:12:43;-4.30;99.90
10980;DHT22;5543;51.734;8.744;2023-03-01T03:15:13;-4.30;99.90
10980;DHT22;5543;51.734;8.744;2023-03-01T03:17:44;-4.40;99.90
10980;DHT22;5543;51.734;8.744;2023-03-01T03:20:14;-4.40;99.90
10980;DHT22;5543;51.734;8.744;2023-03-01T03:22:46;-4.40;99.90
10980;DHT22;5543;51.734;8.744;2023-03-01T03:25:15;-4.40;99.90
10980;DHT22;5543;51.734;8.744;2023-03-01T03:27:45;-4.40;99.90
10980;DHT22;5543;51.734;8.744;2023-03-01T03:30:17;-4.40;99.90
10980;DHT22;5543;51.734;8.744;2023-03-01T03:32:47;-4.40;99.90
10980;DHT22;5543;51.734;8.744;2023-03-01T03:35:20;-4.40;99.90
10980;DHT22;5543;51.734;8.744;2023-03-01T03:37:49;-4.40;99.90
10980;DHT22;5543;51.734;8.744;2023-03-01T03:40:34;-4.40;99.90
10980;DHT22;5543;51.734;8.744;2023-03-01T03:43:04;-4.40;99.90
10980;DHT22;5543;51.734;8.744;2023-03-01T03:45:34;-4.40;99.90
10980;DHT22;5543;51.734;8.744;2023-03-01T03:48:03;-4.40;99.90
10980;DHT22;5543;51.734;8.744;2023-03-01T03:50:32;-4.50;99.90
10980;DHT22;5543;51.734;8.744;2023-03-01T03:53:02;-4.40;99.90
10980;DHT22;5543;51.734;8.744;2023-03-01T03:55:30;-4.50;99.90
10980;DHT22;5543;51.734;8.744;2023-03-01T03:58:01;-4.50;99.90
10980;DHT22;5543;51.734;8.744;2023-03-01T04:00:37;-4.50;99.90
10980;DHT22;5543;51.734;8.744;2023-03-01T04:03:05;-4.40;99.90
10980;DHT22;5543;51.734;8.744;2023-03-01T04:05:34;-4.50;99.90
10980;DHT22;5543;51.734;8.744;2023-03-01T04:08:03;-4.50;99.90
10980;DHT22;5543;51.734;8.744;2023-03-01T04:10:36;-4.60;99.90
10980;DHT22;5543;51.734;8.744;2023-03-01T04:13:05;-4.30;99.90
10980;DHT22;5543;51.734;8.744;2023-03-01T04:15:35;-4.60;99.90
10980;DHT22;5543;51.734;8.744;2023-03-01T04:18:03;-4.60;99.90
10980;DHT22;5543;51.734;8.744;2023-03-01T04:20:34;-4.60;99.90
10980;DHT22;5543;51.734;8.744;2023-03-01T04:23:04;-4.70;99.90
10980;DHT22;5543;51.734;8.744;2023-03-01T04:25:41;-4.70;99.90
10980;DHT22;5543;51.734;8.744;2023-03-01T04:28:09;-4.70;99.90
10980;DHT22;5543;51.734;8.744;2023-03-01T04:30:39;-4.70;99.90
10980;DHT22;5543;51.734;8.744;2023-03-01T04:33:09;-4.70;99.90
10980;DHT22;5543;51.734;8.744;2023-03-01T04:35:38;-4.70;99.90
10980;DHT22;5543;51.734;8.744;2023-03-01T04:38:07;-4.60;99.90
10980;DHT22;5543;51.734;8.744;2023-03-01T04:40:36;-4.70;99.90
10980;DHT22;5543;51.734;8.744;2023-03-01T04:43:04;-4.70;99.90
10980;DHT22;5543;51.734;8.744;2023-03-01T04:45:33;-4.70;99.90
10980;DHT22;5543;51.734;8.744;2023-03-01T04:48:04;-4.70;99.90
10980;DHT22;5543;51.734;8.744;2023-03-01T04:50:32;-4.70;99.90
10980;DHT22;5543;51.734;8.744;2023-03-01T04:53:00;-4.70;99.90
10980;DHT22;5543;51.734;8.744;2023-03-01T04:55:28;-4.80;99.90
10980;DHT22;5543;51.734;8.744;2023-03-01T04:57:57;-4.80;99.90
10980;DHT22;5543;51.734;8.744;2023-03-01T05:00:25;-4.80;99.90
10980;DHT22;5543;51.734;8.744;2023-03-01T05:02:55;-4.80;99.90
10980;DHT22;5543;51.734;8.744;2023-03-01T05:05:27;-4.80;99.90
10980;DHT22;5543;51.734;8.744;2023-03-01T05:07:57;-4.80;99.90
10980;DHT22;5543;51.734;8.744;2023-03-01T05:10:27;-4.80;99.90
10980;DHT22;5543;51.734;8.744;2023-03-01T05:12:57;-4.80;99.90
10980;DHT22;5543;51.734;8.744;2023-03-01T05:15:25;-4.80;99.90
10980;DHT22;5543;51.734;8.744;2023-03-01T05:17:56;-4.90;99.90
10980;DHT22;5543;51.734;8.744;2023-03-01T05:20:29;-4.90;99.90
10980;DHT22;5543;51.734;8.744;2023-03-01T05:22:59;-4.90;99.90
10980;DHT22;5543;51.734;8.744;2023-03-01T05:25:33;-4.90;99.90
10980;DHT22;5543;51.734;8.744;2023-03-01T05:28:01;-4.90;99.90
10980;DHT22;5543;51.734;8.744;2023-03-01T05:30:31;-4.90;99.90
10980;DHT22;5543;51.734;8.744;2023-03-01T05:33:00;-4.90;99.90
10980;DHT22;5543;51.734;8.744;2023-03-01T05:35:29;-4.90;99.90
10980;DHT22;5543;51.734;8.744;2023-03-01T05:38:00;-4.90;99.90
10980;DHT22;5543;51.734;8.744;2023-03-01T05:40:28;-4.90;99.90
10980;DHT22;5543;51.734;8.744;2023-03-01T05:42:56;-4.90;99.90
10980;DHT22;5543;51.734;8.744;2023-03-01T05:45:26;-4.90;99.90
10980;DHT22;5543;51.734;8.744;2023-03-01T05:47:54;-4.90;99.90
10980;DHT22;5543;51.734;8.744;2023-03-01T05:50:25;-4.50;99.90
10980;DHT22;5543;51.734;8.744;2023-03-01T05:52:59;-4.90;99.90
10980;DHT22;5543;51.734;8.744;2023-03-01T05:55:28;-4.80;99.90
10980;DHT22;5543;51.734;8.744;2023-03-01T05:57:58;-4.90;99.90
10980;DHT22;5543;51.734;8.744;2023-03-01T06:00:27;-4.90;99.90
10980;DHT22;5543;51.734;8.744;2023-03-01T06:02:56;-4.90;99.90
10980;DHT22;5543;51.734;8.744;2023-03-01T06:05:25;-4.90;99.90
10980;DHT22;5543;51.734;8.744;2023-03-01T06:07:54;-4.90;99.90
10980;DHT22;5543;51.734;8.744;2023-03-01T06:10:24;-5.00;99.90
10980;DHT22;5543;51.734;8.744;2023-03-01T06:12:52;-5.00;99.90
10980;DHT22;5543;51.734;8.744;2023-03-01T06:15:21;-5.00;99.90
10980;DHT22;5543;51.734;8.744;2023-03-01T06:17:50;-5.00;99.90
10980;DHT22;5543;51.734;8.744;2023-03-01T06:20:20;-5.00;99.90
10980;DHT22;5543;51.734;8.744;2023-03-01T06:22:49;-5.00;99.90
10980;DHT22;5543;51.734;8.744;2023-03-01T06:25:19;-5.00;99.90
10980;DHT22;5543;51.734;8.744;2023-03-01T06:27:49;-5.00;99.90
10980;DHT22;5543;51.734;8.744;2023-03-01T06:30:20;-5.00;99.90
10980;DHT22;5543;51.734;8.744;2023-03-01T06:32:48;-4.90;99.90
10980;DHT22;5543;51.734;8.744;2023-03-01T06:35:18;-4.80;99.90
10980;DHT22;5543;51.734;8.744;2023-03-01T06:37:47;-4.80;99.90
10980;DHT22;5543;51.734;8.744;2023-03-01T06:40:16;-4.70;99.90
10980;DHT22;5543;51.734;8.744;2023-03-01T06:42:49;-4.70;99.90
10980;DHT22;5543;51.734;8.744;2023-03-01T06:45:18;-4.70;99.90
10980;DHT22;5543;51.734;8.744;2023-03-01T06:47:47;-4.60;99.90
10980;DHT22;5543;51.734;8.744;2023-03-01T06:50:16;-4.60;99.90
10980;DHT22;5543;51.734;8.744;2023-03-01T06:52:45;-4.50;99.90
10980;DHT22;5543;51.734;8.744;2023-03-01T06:55:12;-4.50;99.90
10980;DHT22;5543;51.734;8.744;2023-03-01T06:57:41;-4.30;99.90
10980;DHT22;5543;51.734;8.744;2023-03-01T07:00:12;-4.40;99.90
10980;DHT22;5543;51.734;8.744;2023-03-01T07:02:40;-4.30;99.90
10980;DHT22;5543;51.734;8.744;2023-03-01T07:05:08;-4.20;99.90
10980;DHT22;5543;51.734;8.744;2023-03-01T07:07:41;-4.10;99.90
10980;DHT22;5543;51.734;8.744;2023-03-01T07:10:11;-3.90;99.90
10980;DHT22;5543;51.734;8.744;2023-03-01T07:12:39;-3.80;99.90
10980;DHT22;5543;51.734;8.744;2023-03-01T07:15:10;-3.70;99.90
10980;DHT22;5543;51.734;8.744;2023-03-01T07:17:38;-3.50;99.90
10980;DHT22;5543;51.734;8.744;2023-03-01T07:20:07;-3.30;99.90
10980;DHT22;5543;51.734;8.744;2023-03-01T07:22:36;-3.20;99.90
10980;DHT22;5543;51.734;8.744;2023-03-01T07:25:04;-3.10;99.90
10980;DHT22;5543;51.734;8.744;2023-03-01T07:27:33;-2.90;99.90
10980;DHT22;5543;51.734;8.744;2023-03-01T07:30:01;-2.80;99.90
10980;DHT22;5543;51.734;8.744;2023-03-01T07:32:30;-2.60;99.90
10980;DHT22;5543;51.734;8.744;2023-03-01T07:34:59;-2.50;99.90
10980;DHT22;5543;51.734;8.744;2023-03-01T07:37:27;-2.30;99.90
10980;DHT22;5543;51.734;8.744;2023-03-01T07:39:55;-2.20;99.90
10980;DHT22;5543;51.734;8.744;2023-03-01T07:42:24;-2.00;99.90
10980;DHT22;5543;51.734;8.744;2023-03-01T07:44:52;-1.90;99.90
10980;DHT22;5543;51.734;8.744;2023-03-01T07:47:20;-1.70;99.90
10980;DHT22;5543;51.734;8.744;2023-03-01T07:49:50;-1.50;99.90
10980;DHT22;5543;51.734;8.744;2023-03-01T07:52:18;-1.10;99.90
10980;DHT22;5543;51.734;8.744;2023-03-01T07:54:46;-1.00;99.90
10980;DHT22;5543;51.734;8.744;2023-03-01T07:57:14;-0.90;99.90
10980;DHT22;5543;51.734;8.744;2023-03-01T07:59:42;-0.60;99.90
10980;DHT22;5543;51.734;8.744;2023-03-01T08:02:11;-0.40;99.90
10980;DHT22;5543;51.734;8.744;2023-03-01T08:04:39;-0.20;99.90
10980;DHT22;5543;51.734;8.744;2023-03-01T08:07:09;0.00;99.90
10980;DHT22;5543;51.734;8.744;2023-03-01T08:09:37;0.30;99.90
10980;DHT22;5543;51.734;8.744;2023-03-01T08:12:06;0.50;99.90
10980;DHT22;5543;51.734;8.744;2023-03-01T08:14:35;0.80;99.90
10980;DHT22;5543;51.734;8.744;2023-03-01T08:17:03;1.20;99.90
10980;DHT22;5543;51.734;8.744;2023-03-01T08:19:31;1.30;99.90
10980;DHT22;5543;51.734;8.744;2023-03-01T08:22:01;1.50;99.90
10980;DHT22;5543;51.734;8.744;2023-03-01T08:24:31;1.80;99.90
10980;DHT22;5543;51.734;8.744;2023-03-01T08:26:59;2.10;99.90
10980;DHT22;5543;51.734;8.744;2023-03-01T08:29:30;2.50;99.40
10980;DHT22;5543;51.734;8.744;2023-03-01T08:31:59;3.10;99.40
10980;DHT22;5543;51.734;8.744;2023-03-01T08:34:27;3.50;98.60
10980;DHT22;5543;51.734;8.744;2023-03-01T08:36:55;4.50;97.90
10980;DHT22;5543;51.734;8.744;2023-03-01T08:39:23;5.80;95.40
10980;DHT22;5543;51.734;8.744;2023-03-01T08:41:53;6.90;93.70
10980;DHT22;5543;51.734;8.744;2023-03-01T08:44:21;7.90;91.80
10980;DHT22;5543;51.734;8.744;2023-03-01T08:46:50;9.10;91.40
10980;DHT22;5543;51.734;8.744;2023-03-01T08:49:20;10.30;85.80
10980;DHT22;5543;51.734;8.744;2023-03-01T08:51:48;10.90;81.20
10980;DHT22;5543;51.734;8.744;2023-03-01T08:54:18;11.50;78.50
10980;DHT22;5543;51.734;8.744;2023-03-01T08:56:47;12.80;78.30
10980;DHT22;5543;51.734;8.744;2023-03-01T08:59:17;13.00;72.10
10980;DHT22;5543;51.734;8.744;2023-03-01T09:01:46;13.60;71.50
10980;DHT22;5543;51.734;8.744;2023-03-01T09:04:15;14.20;70.40
10980;DHT22;5543;51.734;8.744;2023-03-01T09:06:43;14.20;64.30
10980;DHT22;5543;51.734;8.744;2023-03-01T09:09:13;14.90;66.50
10980;DHT22;5543;51.734;8.744;2023-03-01T09:11:43;15.20;62.00
10980;DHT22;5543;51.734;8.744;2023-03-01T09:14:13;15.70;60.40
10980;DHT22;5543;51.734;8.744;2023-03-01T09:16:43;14.90;58.50
10980;DHT22;5543;51.734;8.744;2023-03-01T09:19:12;15.20;59.40
10980;DHT22;5543;51.734;8.744;2023-03-01T09:21:42;15.70;58.40
10980;DHT22;5543;51.734;8.744;2023-03-01T09:24:20;16.30;55.90
10980;DHT22;5543;51.734;8.744;2023-03-01T09:26:49;14.90;54.10
10980;DHT22;5543;51.734;8.744;2023-03-01T09:29:17;14.70;55.60
10980;DHT22;5543;51.734;8.744;2023-03-01T09:31:47;14.70;56.40
10980;DHT22;5543;51.734;8.744;2023-03-01T09:34:15;14.50;53.20
10980;DHT22;5543;51.734;8.744;2023-03-01T09:36:50;14.10;54.00
10980;DHT22;5543;51.734;8.744;2023-03-01T09:39:19;13.80;54.10
10980;DHT22;5543;51.734;8.744;2023-03-01T09:41:54;14.60;55.50
10980;DHT22;5543;51.734;8.744;2023-03-01T09:44:34;15.40;54.40
10980;DHT22;5543;51.734;8.744;2023-03-01T09:47:05;16.00;53.40
10980;DHT22;5543;51.734;8.744;2023-03-01T09:49:40;15.60;51.70
10980;DHT22;5543;51.734;8.744;2023-03-01T09:52:19;16.10;53.50
10980;DHT22;5543;51.734;8.744;2023-03-01T09:54:51;16.10;50.50
10980;DHT22;5543;51.734;8.744;2023-03-01T09:57:26;16.40;52.20
10980;DHT22;5543;51.734;8.744;2023-03-01T10:00:23;16.30;50.80
10980;DHT22;5543;51.734;8.744;2023-03-01T10:02:59;16.90;50.60
10980;DHT22;5543;51.734;8.744;2023-03-01T10:05:39;16.40;49.50
10980;DHT22;5543;51.734;8.744;2023-03-01T10:08:26;15.80;49.60
10980;DHT22;5543;51.734;8.744;2023-03-01T10:10:58;16.30;49.80
10980;DHT22;5543;51.734;8.744;2023-03-01T10:13:33;16.80;50.90
10980;DHT22;5543;51.734;8.744;2023-03-01T10:16:09;15.70;48.60
10980;DHT22;5543;51.734;8.744;2023-03-01T10:18:41;15.60;48.80
10980;DHT22;5543;51.734;8.744;2023-03-01T10:21:14;15.20;49.10
10980;DHT22;5543;51.734;8.744;2023-03-01T10:23:43;16.10;50.10
10980;DHT22;5543;51.734;8.744;2023-03-01T10:26:27;17.00;49.00
10980;DHT22;5543;51.734;8.744;2023-03-01T10:29:02;17.00;47.80
10980;DHT22;5543;51.734;8.744;2023-03-01T10:31:38;17.30;48.70
10980;DHT22;5543;51.734;8.744;2023-03-01T10:34:19;16.90;47.20
10980;DHT22;5543;51.734;8.744;2023-03-01T10:36:49;17.10;47.70
10980;DHT22;5543;51.734;8.744;2023-03-01T10:39:19;17.20;46.20
10980;DHT22;5543;51.734;8.744;2023-03-01T10:41:56;16.10;47.10
10980;DHT22;5543;51.734;8.744;2023-03-01T10:44:43;16.20;48.30
10980;DHT22;5543;51.734;8.744;2023-03-01T10:47:18;16.00;46.50
10980;DHT22;5543;51.734;8.744;2023-03-01T10:49:58;15.40;47.20
10980;DHT22;5543;51.734;8.744;2023-03-01T10:52:31;15.10;46.50
10980;DHT22;5543;51.734;8.744;2023-03-01T10:55:02;14.80;46.50
10980;DHT22;5543;51.734;8.744;2023-03-01T10:57:34;14.50;49.30
10980;DHT22;5543;51.734;8.744;2023-03-01T11:00:25;14.20;48.20
10980;DHT22;5543;51.734;8.744;2023-03-01T11:03:12;13.90;48.80
10980;DHT22;5543;51.734;8.744;2023-03-01T11:05:59;13.60;48.50
10980;DHT22;5543;51.734;8.744;2023-03-01T11:08:31;13.30;48.20
10980;DHT22;5543;51.734;8.744;2023-03-01T11:13:55;13.10;50.60
10980;DHT22;5543;51.734;8.744;2023-03-01T11:16:34;14.30;50.90
10980;DHT22;5543;51.734;8.744;2023-03-01T11:19:16;13.70;51.00
10980;DHT22;5543;51.734;8.744;2023-03-01T11:21:59;13.30;51.60
10980;DHT22;5543;51.734;8.744;2023-03-01T11:24:37;13.40;52.70
10980;DHT22;5543;51.734;8.744;2023-03-01T11:27:17;13.30;53.40
10980;DHT22;5543;51.734;8.744;2023-03-01T11:29:48;13.50;54.10
10980;DHT22;5543;51.734;8.744;2023-03-01T11:32:20;13.30;52.30
10980;DHT22;5543;51.734;8.744;2023-03-01T11:34:54;12.50;53.90
10980;DHT22;5543;51.734;8.744;2023-03-01T11:37:32;11.80;55.40
10980;DHT22;5543;51.734;8.744;2023-03-01T11:40:10;10.90;56.10
10980;DHT22;5543;51.734;8.744;2023-03-01T11:42:51;10.40;55.60
10980;DHT22;5543;51.734;8.744;2023-03-01T11:45:23;10.00;57.20
10980;DHT22;5543;51.734;8.744;2023-03-01T11:48:07;9.80;60.40
10980;DHT22;5543;51.734;8.744;2023-03-01T11:50:42;10.30;58.90
10980;DHT22;5543;51.734;8.744;2023-03-01T11:53:30;10.30;57.60
10980;DHT22;5543;51.734;8.744;2023-03-01T11:56:09;10.40;57.00
10980;DHT22;5543;51.734;8.744;2023-03-01T11:58:51;10.60;58.80
10980;DHT22;5543;51.734;8.744;2023-03-01T12:01:30;11.00;56.70
10980;DHT22;5543;51.734;8.744;2023-03-01T12:07:06;10.40;55.70
10980;DHT22;5543;51.734;8.744;2023-03-01T12:09:52;10.60;55.90
10980;DHT22;5543;51.734;8.744;2023-03-01T12:12:33;10.30;54.90
10980;DHT22;5543;51.734;8.744;2023-03-01T12:15:39;10.40;55.50
10980;DHT22;5543;51.734;8.744;2023-03-01T12:18:36;10.10;58.70
10980;DHT22;5543;51.734;8.744;2023-03-01T12:21:14;9.90;58.50
10980;DHT22;5543;51.734;8.744;2023-03-01T12:26:47;9.50;58.70
10980;DHT22;5543;51.734;8.744;2023-03-01T12:29:26;8.80;58.30
10980;DHT22;5543;51.734;8.744;2023-03-01T12:32:25;8.80;59.60
10980;DHT22;5543;51.734;8.744;2023-03-01T12:35:20;9.00;59.10
10980;DHT22;5543;51.734;8.744;2023-03-01T12:38:01;9.20;60.10
10980;DHT22;5543;51.734;8.744;2023-03-01T12:40:46;9.20;59.10
10980;DHT22;5543;51.734;8.744;2023-03-01T12:43:28;9.00;58.80
10980;DHT22;5543;51.734;8.744;2023-03-01T12:46:18;9.20;58.90
10980;DHT22;5543;51.734;8.744;2023-03-01T12:48:55;9.40;57.80
10980;DHT22;5543;51.734;8.744;2023-03-01T12:51:30;9.80;58.80
10980;DHT22;5543;51.734;8.744;2023-03-01T12:54:05;9.70;58.90
10980;DHT22;5543;51.734;8.744;2023-03-01T12:56:36;9.60;58.70
10980;DHT22;5543;51.734;8.744;2023-03-01T12:59:13;9.80;59.00
10980;DHT22;5543;51.734;8.744;2023-03-01T13:01:48;9.80;58.50
10980;DHT22;5543;51.734;8.744;2023-03-01T13:04:27;10.00;57.80
10980;DHT22;5543;51.734;8.744;2023-03-01T13:07:10;9.70;59.30
10980;DHT22;5543;51.734;8.744;2023-03-01T13:09:46;9.90;60.30
10980;DHT22;5543;51.734;8.744;2023-03-01T13:12:43;10.10;59.30
10980;DHT22;5543;51.734;8.744;2023-03-01T13:15:31;10.40;58.30
10980;DHT22;5543;51.734;8.744;2023-03-01T13:18:01;10.50;58.30
10980;DHT22;5543;51.734;8.744;2023-03-01T13:20:34;10.70;58.60
10980;DHT22;5543;51.734;8.744;2023-03-01T13:23:12;11.10;56.70
10980;DHT22;5543;51.734;8.744;2023-03-01T13:26:05;10.80;56.20
10980;DHT22;5543;51.734;8.744;2023-03-01T13:28:49;10.40;57.50
10980;DHT22;5543;51.734;8.744;2023-03-01T13:35:01;10.20;59.50
10980;DHT22;5543;51.734;8.744;2023-03-01T13:37:33;10.00;58.80
10980;DHT22;5543;51.734;8.744;2023-03-01T13:42:48;10.00;55.70
10980;DHT22;5543;51.734;8.744;2023-03-01T13:45:37;9.80;56.40
10980;DHT22;5543;51.734;8.744;2023-03-01T13:48:10;10.40;56.60
10980;DHT22;5543;51.734;8.744;2023-03-01T13:50:51;10.50;53.60
10980;DHT22;5543;51.734;8.744;2023-03-01T13:53:23;10.90;53.90
10980;DHT22;5543;51.734;8.744;2023-03-01T13:55:55;11.20;53.90
10980;DHT22;5543;51.734;8.744;2023-03-01T13:58:28;11.30;53.70
10980;DHT22;5543;51.734;8.744;2023-03-01T14:00:59;12.10;53.90
10980;DHT22;5543;51.734;8.744;2023-03-01T14:03:29;12.80;51.40
10980;DHT22;5543;51.734;8.744;2023-03-01T14:06:02;12.10;51.00
10980;DHT22;5543;51.734;8.744;2023-03-01T14:08:42;12.00;51.90
10980;DHT22;5543;51.734;8.744;2023-03-01T14:14:25;11.60;51.20
10980;DHT22;5543;51.734;8.744;2023-03-01T14:17:06;11.50;51.80
10980;DHT22;5543;51.734;8.744;2023-03-01T14:19:40;11.50;51.30
10980;DHT22;5543;51.734;8.744;2023-03-01T14:22:18;11.90;51.10
10980;DHT22;5543;51.734;8.744;2023-03-01T14:24:49;12.60;52.00
10980;DHT22;5543;51.734;8.744;2023-03-01T14:27:18;12.60;52.70
10980;DHT22;5543;51.734;8.744;2023-03-01T14:29:55;12.20;51.90
10980;DHT22;5543;51.734;8.744;2023-03-01T14:32:25;12.60;51.80
10980;DHT22;5543;51.734;8.744;2023-03-01T14:34:55;12.30;51.60
10980;DHT22;5543;51.734;8.744;2023-03-01T14:37:27;11.80;52.10
10980;DHT22;5543;51.734;8.744;2023-03-01T14:39:57;11.20;51.80
10980;DHT22;5543;51.734;8.744;2023-03-01T14:42:28;10.60;52.40
10980;DHT22;5543;51.734;8.744;2023-03-01T14:45:00;10.50;53.20
10980;DHT22;5543;51.734;8.744;2023-03-01T14:47:31;10.40;55.30
10980;DHT22;5543;51.734;8.744;2023-03-01T14:50:03;9.70;57.90
10980;DHT22;5543;51.734;8.744;2023-03-01T14:52:37;9.60;58.00
10980;DHT22;5543;51.734;8.744;2023-03-01T14:55:12;9.10;59.40
10980;DHT22;5543;51.734;8.744;2023-03-01T14:57:43;8.60;60.90
10980;DHT22;5543;51.734;8.744;2023-03-01T15:00:18;8.40;60.40
10980;DHT22;5543;51.734;8.744;2023-03-01T15:02:48;8.20;62.00
10980;DHT22;5543;51.734;8.744;2023-03-01T15:05:22;8.00;61.60
10980;DHT22;5543;51.734;8.744;2023-03-01T15:07:53;7.70;62.40
10980;DHT22;5543;51.734;8.744;2023-03-01T15:10:24;7.50;62.00
10980;DHT22;5543;51.734;8.744;2023-03-01T15:12:53;7.20;61.80
10980;DHT22;5543;51.734;8.744;2023-03-01T15:15:33;6.90;61.30
10980;DHT22;5543;51.734;8.744;2023-03-01T15:18:05;6.90;61.70
10980;DHT22;5543;51.734;8.744;2023-03-01T15:20:34;6.80;62.30
10980;DHT22;5543;51.734;8.744;2023-03-01T15:23:24;6.70;63.10
10980;DHT22;5543;51.734;8.744;2023-03-01T15:25:53;6.60;65.00
10980;DHT22;5543;51.734;8.744;2023-03-01T15:28:26;6.50;64.60
10980;DHT22;5543;51.734;8.744;2023-03-01T15:30:57;6.50;66.00
10980;DHT22;5543;51.734;8.744;2023-03-01T15:33:34;6.40;66.30
10980;DHT22;5543;51.734;8.744;2023-03-01T15:38:53;6.40;67.00
10980;DHT22;5543;51.734;8.744;2023-03-01T15:41:23;6.40;67.00
10980;DHT22;5543;51.734;8.744;2023-03-01T15:43:52;6.30;67.40
10980;DHT22;5543;51.734;8.744;2023-03-01T15:46:27;6.30;69.30
10980;DHT22;5543;51.734;8.744;2023-03-01T15:48:58;6.20;68.50
10980;DHT22;5543;51.734;8.744;2023-03-01T15:51:30;6.10;69.00
10980;DHT22;5543;51.734;8.744;2023-03-01T15:54:02;6.00;69.50
10980;DHT22;5543;51.734;8.744;2023-03-01T15:56:30;6.00;68.60
10980;DHT22;5543;51.734;8.744;2023-03-01T15:59:01;6.00;68.40
10980;DHT22;5543;51.734;8.744;2023-03-01T16:01:29;6.00;69.50
10980;DHT22;5543;51.734;8.744;2023-03-01T16:03:59;6.00;70.40
10980;DHT22;5543;51.734;8.744;2023-03-01T16:06:27;5.90;71.00
10980;DHT22;5543;51.734;8.744;2023-03-01T16:08:56;5.80;70.30
10980;DHT22;5543;51.734;8.744;2023-03-01T16:11:25;5.80;71.00
10980;DHT22;5543;51.734;8.744;2023-03-01T16:13:54;5.70;71.50
10980;DHT22;5543;51.734;8.744;2023-03-01T16:16:22;5.60;71.60
10980;DHT22;5543;51.734;8.744;2023-03-01T16:18:51;5.70;71.80
10980;DHT22;5543;51.734;8.744;2023-03-01T16:21:22;5.40;71.90
10980;DHT22;5543;51.734;8.744;2023-03-01T16:23:52;5.40;72.20
10980;DHT22;5543;51.734;8.744;2023-03-01T16:26:20;5.40;72.40
10980;DHT22;5543;51.734;8.744;2023-03-01T16:28:50;5.30;72.80
10980;DHT22;5543;51.734;8.744;2023-03-01T16:31:19;5.20;72.80
10980;DHT22;5543;51.734;8.744;2023-03-01T16:33:48;5.10;73.30
10980;DHT22;5543;51.734;8.744;2023-03-01T16:36:19;5.10;73.50
10980;DHT22;5543;51.734;8.744;2023-03-01T16:38:50;5.00;73.50
10980;DHT22;5543;51.734;8.744;2023-03-01T16:41:20;4.90;73.90
10980;DHT22;5543;51.734;8.744;2023-03-01T16:43:50;4.80;74.00